sensor_id;sensor_type;location;lat;lon;timestamp;temperature;humidity
80412;SHT30;69749;42.684;23.360;2023-09-08T00:01:42;20.40;65.87
80412;SHT30;69749;42.684;23.360;2023-09-08T00:04:08;20.31;65.95
80412;SHT30;69749;42.684;23.360;2023-09-08T00:06:33;20.18;66.14
80412;SHT30;69749;42.684;23.360;2023-09-08T00:08:59;20.06;65.78
80412;SHT30;69749;42.684;23.360;2023-09-08T00:11:24;20.04;65.84
80412;SHT30;69749;42.684;23.360;2023-09-08T00:13:50;20.13;65.60
80412;SHT30;69749;42.684;23.360;2023-09-08T00:16:16;20.17;65.27
80412;SHT30;69749;42.684;23.360;2023-09-08T00:18:41;20.20;64.98
80412;SHT30;69749;42.684;23.360;2023-09-08T00:21:06;20.27;64.43
80412;SHT30;69749;42.684;23.360;2023-09-08T00:23:32;20.16;64.25
80412;SHT30;69749;42.684;23.360;2023-09-08T00:25:57;20.17;64.26
80412;SHT30;69749;42.684;23.360;2023-09-08T00:28:24;20.17;63.90
80412;SHT30;69749;42.684;23.360;2023-09-08T00:30:49;20.09;63.58
80412;SHT30;69749;42.684;23.360;2023-09-08T00:33:14;20.04;63.61
80412;SHT30;69749;42.684;23.360;2023-09-08T00:35:44;20.12;63.46
80412;SHT30;69749;42.684;23.360;2023-09-08T00:38:09;20.10;63.53
80412;SHT30;69749;42.684;23.360;2023-09-08T00:40:35;20.10;63.71
80412;SHT30;69749;42.684;23.360;2023-09-08T00:43:00;20.21;63.36
80412;SHT30;69749;42.684;23.360;2023-09-08T00:45:29;20.17;63.20
80412;SHT30;69749;42.684;23.360;2023-09-08T00:47:55;20.12;63.16
80412;SHT30;69749;42.684;23.360;2023-09-08T00:50:20;20.10;63.36
80412;SHT30;69749;42.684;23.360;2023-09-08T00:52:46;20.10;63.19
80412;SHT30;69749;42.684;23.360;2023-09-08T00:55:12;20.03;62.60
80412;SHT30;69749;42.684;23.360;2023-09-08T00:57:37;20.07;62.69
80412;SHT30;69749;42.684;23.360;2023-09-08T01:00:03;20.14;62.43
80412;SHT30;69749;42.684;23.360;2023-09-08T01:02:31;20.18;62.24
80412;SHT30;69749;42.684;23.360;2023-09-08T01:04:58;20.24;62.08
80412;SHT30;69749;42.684;23.360;2023-09-08T01:07:25;20.31;62.80
80412;SHT30;69749;42.684;23.360;2023-09-08T01:09:51;20.38;62.87
80412;SHT30;69749;42.684;23.360;2023-09-08T01:12:18;20.40;63.07
80412;SHT30;69749;42.684;23.360;2023-09-08T01:14:44;20.31;63.01
80412;SHT30;69749;42.684;23.360;2023-09-08T01:17:09;20.21;62.79
80412;SHT30;69749;42.684;23.360;2023-09-08T01:19:35;19.92;63.43
80412;SHT30;69749;42.684;23.360;2023-09-08T01:27:35;19.83;63.64
80412;SHT30;69749;42.684;23.360;2023-09-08T01:30:03;19.85;63.53
80412;SHT30;69749;42.684;23.360;2023-09-08T01:32:30;19.83;63.52
80412;SHT30;69749;42.684;23.360;2023-09-08T01:34:57;19.86;63.40
80412;SHT30;69749;42.684;23.360;2023-09-08T01:37:23;19.72;63.55
80412;SHT30;69749;42.684;23.360;2023-09-08T01:39:49;19.70;63.65
80412;SHT30;69749;42.684;23.360;2023-09-08T01:42:14;19.67;63.58
80412;SHT30;69749;42.684;23.360;2023-09-08T01:44:40;19.70;63.47
80412;SHT30;69749;42.684;23.360;2023-09-08T01:47:05;19.72;63.46
80412;SHT30;69749;42.684;23.360;2023-09-08T01:49:31;19.75;63.57
80412;SHT30;69749;42.684;23.360;2023-09-08T01:51:56;19.80;63.48
80412;SHT30;69749;42.684;23.360;2023-09-08T01:54:22;19.83;63.38
80412;SHT30;69749;42.684;23.360;2023-09-08T01:56:47;19.76;63.86
80412;SHT30;69749;42.684;23.360;2023-09-08T01:59:12;19.72;63.96
80412;SHT30;69749;42.684;23.360;2023-09-08T02:01:38;19.67;64.30
80412;SHT30;69749;42.684;23.360;2023-09-08T02:04:03;19.61;64.61
80412;SHT30;69749;42.684;23.360;2023-09-08T02:06:29;19.58;64.71
80412;SHT30;69749;42.684;23.360;2023-09-08T02:08:54;19.51;65.11
80412;SHT30;69749;42.684;23.360;2023-09-08T02:11:20;19.54;64.99
80412;SHT30;69749;42.684;23.360;2023-09-08T02:13:45;19.55;65.05
80412;SHT30;69749;42.684;23.360;2023-09-08T02:16:14;19.65;64.77
80412;SHT30;69749;42.684;23.360;2023-09-08T02:18:41;19.75;64.68
80412;SHT30;69749;42.684;23.360;2023-09-08T02:21:07;19.69;64.90
80412;SHT30;69749;42.684;23.360;2023-09-08T02:23:32;19.75;64.73
80412;SHT30;69749;42.684;23.360;2023-09-08T02:25:57;19.80;64.58
80412;SHT30;69749;42.684;23.360;2023-09-08T02:28:23;19.87;64.43
80412;SHT30;69749;42.684;23.360;2023-09-08T02:30:48;19.92;64.30
80412;SHT30;69749;42.684;23.360;2023-09-08T02:33:14;19.94;64.23
80412;SHT30;69749;42.684;23.360;2023-09-08T02:35:39;19.98;64.24
80412;SHT30;69749;42.684;23.360;2023-09-08T02:38:05;20.00;64.19
80412;SHT30;69749;42.684;23.360;2023-09-08T02:40:30;20.04;64.27
80412;SHT30;69749;42.684;23.360;2023-09-08T02:42:55;20.00;64.33
80412;SHT30;69749;42.684;23.360;2023-09-08T02:45:21;20.03;64.36
80412;SHT30;69749;42.684;23.360;2023-09-08T02:47:46;20.03;64.46
80412;SHT30;69749;42.684;23.360;2023-09-08T02:50:12;20.00;64.66
80412;SHT30;69749;42.684;23.360;2023-09-08T02:52:37;19.87;65.14
80412;SHT30;69749;42.684;23.360;2023-09-08T02:55:03;19.79;65.68
80412;SHT30;69749;42.684;23.360;2023-09-08T02:57:28;19.67;65.98
80412;SHT30;69749;42.684;23.360;2023-09-08T02:59:53;19.58;66.42
80412;SHT30;69749;42.684;23.360;2023-09-08T03:02:22;19.59;66.40
80412;SHT30;69749;42.684;23.360;2023-09-08T03:04:48;19.52;66.70
80412;SHT30;69749;42.684;23.360;2023-09-08T03:07:13;19.49;66.91
80412;SHT30;69749;42.684;23.360;2023-09-08T03:09:39;19.52;66.91
80412;SHT30;69749;42.684;23.360;2023-09-08T03:12:04;19.52;66.84
80412;SHT30;69749;42.684;23.360;2023-09-08T03:14:30;19.51;66.95
80412;SHT30;69749;42.684;23.360;2023-09-08T03:16:55;19.41;67.28
80412;SHT30;69749;42.684;23.360;2023-09-08T03:19:20;19.26;67.79
80412;SHT30;69749;42.684;23.360;2023-09-08T03:21:46;19.25;67.87
80412;SHT30;69749;42.684;23.360;2023-09-08T03:24:11;19.31;67.66
80412;SHT30;69749;42.684;23.360;2023-09-08T03:26:37;19.38;67.40
80412;SHT30;69749;42.684;23.360;2023-09-08T03:29:02;19.41;67.46
80412;SHT30;69749;42.684;23.360;2023-09-08T03:31:28;19.15;68.12
80412;SHT30;69749;42.684;23.360;2023-09-08T03:33:53;19.17;68.22
80412;SHT30;69749;42.684;23.360;2023-09-08T03:36:19;19.17;68.32
80412;SHT30;69749;42.684;23.360;2023-09-08T03:38:44;19.05;68.65
80412;SHT30;69749;42.684;23.360;2023-09-08T03:41:10;19.05;68.75
80412;SHT30;69749;42.684;23.360;2023-09-08T03:43:36;18.88;69.30
80412;SHT30;69749;42.684;23.360;2023-09-08T03:46:01;18.88;69.41
80412;SHT30;69749;42.684;23.360;2023-09-08T03:48:26;18.86;69.47
80412;SHT30;69749;42.684;23.360;2023-09-08T03:50:52;18.84;69.71
80412;SHT30;69749;42.684;23.360;2023-09-08T03:53:17;18.70;70.19
80412;SHT30;69749;42.684;23.360;2023-09-08T03:55:43;18.68;70.50
80412;SHT30;69749;42.684;23.360;2023-09-08T03:58:08;18.68;70.54
80412;SHT30;69749;42.684;23.360;2023-09-08T04:00:34;18.73;70.51
80412;SHT30;69749;42.684;23.360;2023-09-08T04:02:59;18.63;70.93
80412;SHT30;69749;42.684;23.360;2023-09-08T04:05:25;18.64;70.96
80412;SHT30;69749;42.684;23.360;2023-09-08T04:07:50;18.61;71.13
80412;SHT30;69749;42.684;23.360;2023-09-08T04:10:16;18.57;71.40
80412;SHT30;69749;42.684;23.360;2023-09-08T04:12:42;18.59;71.46
80412;SHT30;69749;42.684;23.360;2023-09-08T04:15:08;18.53;71.66
80412;SHT30;69749;42.684;23.360;2023-09-08T04:17:34;18.49;71.84
80412;SHT30;69749;42.684;23.360;2023-09-08T04:20:04;18.56;71.61
80412;SHT30;69749;42.684;23.360;2023-09-08T04:22:33;18.61;71.40
80412;SHT30;69749;42.684;23.360;2023-09-08T04:24:59;18.66;71.29
80412;SHT30;69749;42.684;23.360;2023-09-08T04:27:25;18.77;70.97
80412;SHT30;69749;42.684;23.360;2023-09-08T04:29:50;18.80;70.77
80412;SHT30;69749;42.684;23.360;2023-09-08T04:32:15;18.73;70.96
80412;SHT30;69749;42.684;23.360;2023-09-08T04:34:41;18.84;70.69
80412;SHT30;69749;42.684;23.360;2023-09-08T04:37:08;18.83;70.61
80412;SHT30;69749;42.684;23.360;2023-09-08T04:39:34;18.90;70.29
80412;SHT30;69749;42.684;23.360;2023-09-08T04:42:00;19.01;69.99
80412;SHT30;69749;42.684;23.360;2023-09-08T04:44:25;19.08;69.74
80412;SHT30;69749;42.684;23.360;2023-09-08T04:46:54;19.12;69.63
80412;SHT30;69749;42.684;23.360;2023-09-08T04:49:19;19.21;69.30
80412;SHT30;69749;42.684;23.360;2023-09-08T04:51:45;19.24;69.06
80412;SHT30;69749;42.684;23.360;2023-09-08T04:54:11;19.34;68.82
80412;SHT30;69749;42.684;23.360;2023-09-08T04:56:37;19.19;69.19
80412;SHT30;69749;42.684;23.360;2023-09-08T04:59:03;19.24;68.98
80412;SHT30;69749;42.684;23.360;2023-09-08T05:01:28;19.32;68.78
80412;SHT30;69749;42.684;23.360;2023-09-08T05:03:55;19.42;68.38
80412;SHT30;69749;42.684;23.360;2023-09-08T05:06:20;19.56;68.11
80412;SHT30;69749;42.684;23.360;2023-09-08T05:08:46;20.23;65.92
80412;SHT30;69749;42.684;23.360;2023-09-08T05:11:11;20.96;63.65
80412;SHT30;69749;42.684;23.360;2023-09-08T05:13:36;21.89;60.88
80412;SHT30;69749;42.684;23.360;2023-09-08T05:16:02;23.06;56.62
80412;SHT30;69749;42.684;23.360;2023-09-08T05:18:39;24.24;53.13
80412;SHT30;69749;42.684;23.360;2023-09-08T05:21:06;25.24;49.80
80412;SHT30;69749;42.684;23.360;2023-09-08T05:23:31;25.78;47.66
80412;SHT30;69749;42.684;23.360;2023-09-08T05:25:57;26.72;46.17
80412;SHT30;69749;42.684;23.360;2023-09-08T05:28:22;27.42;44.35
80412;SHT30;69749;42.684;23.360;2023-09-08T05:30:50;27.04;44.72
80412;SHT30;69749;42.684;23.360;2023-09-08T05:33:16;27.72;43.93
80412;SHT30;69749;42.684;23.360;2023-09-08T05:35:42;27.88;42.97
80412;SHT30;69749;42.684;23.360;2023-09-08T05:38:07;27.81;42.92
80412;SHT30;69749;42.684;23.360;2023-09-08T05:40:34;28.81;40.99
80412;SHT30;69749;42.684;23.360;2023-09-08T05:43:00;28.71;40.26
80412;SHT30;69749;42.684;23.360;2023-09-08T05:45:25;28.61;41.01
80412;SHT30;69749;42.684;23.360;2023-09-08T05:47:51;29.56;39.41
80412;SHT30;69749;42.684;23.360;2023-09-08T05:50:16;29.69;38.48
80412;SHT30;69749;42.684;23.360;2023-09-08T05:52:43;30.19;37.84
80412;SHT30;69749;42.684;23.360;2023-09-08T05:55:08;29.45;37.16
80412;SHT30;69749;42.684;23.360;2023-09-08T05:57:34;30.89;34.38
80412;SHT30;69749;42.684;23.360;2023-09-08T06:00:00;31.24;33.15
80412;SHT30;69749;42.684;23.360;2023-09-08T06:02:25;32.67;31.49
80412;SHT30;69749;42.684;23.360;2023-09-08T06:04:51;33.43;30.24
80412;SHT30;69749;42.684;23.360;2023-09-08T06:07:16;31.52;32.63
80412;SHT30;69749;42.684;23.360;2023-09-08T06:09:42;32.81;31.04
80412;SHT30;69749;42.684;23.360;2023-09-08T06:12:07;32.20;31.17
80412;SHT30;69749;42.684;23.360;2023-09-08T06:14:32;32.82;30.90
80412;SHT30;69749;42.684;23.360;2023-09-08T06:16:58;32.03;31.71
80412;SHT30;69749;42.684;23.360;2023-09-08T06:19:23;31.49;31.79
80412;SHT30;69749;42.684;23.360;2023-09-08T06:21:48;32.37;30.86
80412;SHT30;69749;42.684;23.360;2023-09-08T06:24:14;30.96;32.80
80412;SHT30;69749;42.684;23.360;2023-09-08T06:26:39;31.99;31.10
80412;SHT30;69749;42.684;23.360;2023-09-08T06:29:05;31.90;30.25
80412;SHT30;69749;42.684;23.360;2023-09-08T06:31:30;32.64;29.34
80412;SHT30;69749;42.684;23.360;2023-09-08T06:33:56;32.49;29.46
80412;SHT30;69749;42.684;23.360;2023-09-08T06:36:21;31.97;29.84
80412;SHT30;69749;42.684;23.360;2023-09-08T06:38:47;30.36;31.15
80412;SHT30;69749;42.684;23.360;2023-09-08T06:41:12;31.58;30.34
80412;SHT30;69749;42.684;23.360;2023-09-08T06:43:38;31.34;30.04
80412;SHT30;69749;42.684;23.360;2023-09-08T06:46:04;32.05;29.59
80412;SHT30;69749;42.684;23.360;2023-09-08T06:48:30;32.23;29.28
80412;SHT30;69749;42.684;23.360;2023-09-08T06:50:55;30.93;30.36
80412;SHT30;69749;42.684;23.360;2023-09-08T06:53:24;31.27;30.02
80412;SHT30;69749;42.684;23.360;2023-09-08T06:55:50;31.20;30.42
80412;SHT30;69749;42.684;23.360;2023-09-08T06:58:15;31.65;29.04
80412;SHT30;69749;42.684;23.360;2023-09-08T07:00:41;32.02;28.56
80412;SHT30;69749;42.684;23.360;2023-09-08T07:03:07;33.65;26.82
80412;SHT30;69749;42.684;23.360;2023-09-08T07:05:38;33.98;26.23
80412;SHT30;69749;42.684;23.360;2023-09-08T07:08:04;32.74;27.51
80412;SHT30;69749;42.684;23.360;2023-09-08T07:10:31;33.49;27.21
80412;SHT30;69749;42.684;23.360;2023-09-08T07:12:56;33.38;26.82
80412;SHT30;69749;42.684;23.360;2023-09-08T07:15:22;32.75;27.41
80412;SHT30;69749;42.684;23.360;2023-09-08T07:17:47;32.88;26.46
80412;SHT30;69749;42.684;23.360;2023-09-08T07:20:13;32.77;26.72
80412;SHT30;69749;42.684;23.360;2023-09-08T07:22:38;32.51;27.27
80412;SHT30;69749;42.684;23.360;2023-09-08T07:25:04;32.33;27.67
80412;SHT30;69749;42.684;23.360;2023-09-08T07:27:30;30.60;29.97
80412;SHT30;69749;42.684;23.360;2023-09-08T07:29:55;31.16;29.34
80412;SHT30;69749;42.684;23.360;2023-09-08T07:32:20;31.71;28.40
80412;SHT30;69749;42.684;23.360;2023-09-08T07:34:47;31.76;27.83
80412;SHT30;69749;42.684;23.360;2023-09-08T07:37:22;30.65;29.54
80412;SHT30;69749;42.684;23.360;2023-09-08T07:39:48;29.57;30.90
80412;SHT30;69749;42.684;23.360;2023-09-08T07:42:14;29.22;31.68
80412;SHT30;69749;42.684;23.360;2023-09-08T07:44:39;30.31;30.42
80412;SHT30;69749;42.684;23.360;2023-09-08T07:47:05;28.60;31.42
80412;SHT30;69749;42.684;23.360;2023-09-08T07:49:33;29.53;30.98
80412;SHT30;69749;42.684;23.360;2023-09-08T07:51:59;29.90;30.16
80412;SHT30;69749;42.684;23.360;2023-09-08T07:54:24;29.97;30.53
80412;SHT30;69749;42.684;23.360;2023-09-08T07:56:50;31.23;28.56
80412;SHT30;69749;42.684;23.360;2023-09-08T07:59:15;31.74;27.69
80412;SHT30;69749;42.684;23.360;2023-09-08T08:01:41;31.72;27.99
80412;SHT30;69749;42.684;23.360;2023-09-08T08:04:06;31.97;28.17
80412;SHT30;69749;42.684;23.360;2023-09-08T08:06:32;30.94;28.94
80412;SHT30;69749;42.684;23.360;2023-09-08T08:08:57;28.53;32.18
80412;SHT30;69749;42.684;23.360;2023-09-08T08:11:22;27.70;33.46
80412;SHT30;69749;42.684;23.360;2023-09-08T08:13:48;27.37;34.29
80412;SHT30;69749;42.684;23.360;2023-09-08T08:16:32;27.69;34.31
80412;SHT30;69749;42.684;23.360;2023-09-08T08:18:57;28.53;33.54
80412;SHT30;69749;42.684;23.360;2023-09-08T08:21:23;28.16;34.15
80412;SHT30;69749;42.684;23.360;2023-09-08T08:23:49;28.09;33.92
80412;SHT30;69749;42.684;23.360;2023-09-08T08:26:15;28.09;34.33
80412;SHT30;69749;42.684;23.360;2023-09-08T08:28:40;28.14;34.26
80412;SHT30;69749;42.684;23.360;2023-09-08T08:31:06;27.66;34.29
80412;SHT30;69749;42.684;23.360;2023-09-08T08:33:32;28.30;33.26
80412;SHT30;69749;42.684;23.360;2023-09-08T08:35:57;28.32;33.73
80412;SHT30;69749;42.684;23.360;2023-09-08T08:38:23;27.88;33.98
80412;SHT30;69749;42.684;23.360;2023-09-08T08:40:48;27.31;34.97
80412;SHT30;69749;42.684;23.360;2023-09-08T08:43:14;26.87;34.50
80412;SHT30;69749;42.684;23.360;2023-09-08T08:45:41;27.30;34.02
80412;SHT30;69749;42.684;23.360;2023-09-08T08:48:07;27.42;33.04
80412;SHT30;69749;42.684;23.360;2023-09-08T08:50:34;26.97;34.08
80412;SHT30;69749;42.684;23.360;2023-09-08T08:53:00;27.49;33.81
80412;SHT30;69749;42.684;23.360;2023-09-08T08:55:29;27.51;34.23
80412;SHT30;69749;42.684;23.360;2023-09-08T08:57:57;26.90;35.17
80412;SHT30;69749;42.684;23.360;2023-09-08T09:00:25;27.07;34.80
80412;SHT30;69749;42.684;23.360;2023-09-08T09:02:51;26.61;35.64
80412;SHT30;69749;42.684;23.360;2023-09-08T09:05:18;26.64;35.52
80412;SHT30;69749;42.684;23.360;2023-09-08T09:07:44;26.73;35.22
80412;SHT30;69749;42.684;23.360;2023-09-08T09:10:10;26.79;35.62
80412;SHT30;69749;42.684;23.360;2023-09-08T09:12:37;26.40;35.65
80412;SHT30;69749;42.684;23.360;2023-09-08T09:15:03;26.05;36.07
80412;SHT30;69749;42.684;23.360;2023-09-08T09:17:33;25.30;37.28
80412;SHT30;69749;42.684;23.360;2023-09-08T09:20:15;25.36;37.85
80412;SHT30;69749;42.684;23.360;2023-09-08T09:22:42;25.24;38.17
80412;SHT30;69749;42.684;23.360;2023-09-08T09:25:08;25.59;37.75
80412;SHT30;69749;42.684;23.360;2023-09-08T09:27:34;25.82;37.65
80412;SHT30;69749;42.684;23.360;2023-09-08T09:30:06;25.59;37.68
80412;SHT30;69749;42.684;23.360;2023-09-08T09:32:34;25.60;37.34
80412;SHT30;69749;42.684;23.360;2023-09-08T09:34:59;25.75;37.50
80412;SHT30;69749;42.684;23.360;2023-09-08T09:37:26;25.92;36.89
80412;SHT30;69749;42.684;23.360;2023-09-08T09:39:53;25.95;36.84
80412;SHT30;69749;42.684;23.360;2023-09-08T09:42:19;25.81;37.60
80412;SHT30;69749;42.684;23.360;2023-09-08T09:44:49;25.41;39.06
80412;SHT30;69749;42.684;23.360;2023-09-08T09:47:16;25.34;38.82
80412;SHT30;69749;42.684;23.360;2023-09-08T09:49:43;25.64;38.59
80412;SHT30;69749;42.684;23.360;2023-09-08T09:52:11;25.87;38.18
80412;SHT30;69749;42.684;23.360;2023-09-08T09:54:36;26.09;38.15
80412;SHT30;69749;42.684;23.360;2023-09-08T09:57:03;26.02;38.58
80412;SHT30;69749;42.684;23.360;2023-09-08T09:59:28;25.98;38.79
80412;SHT30;69749;42.684;23.360;2023-09-08T10:01:54;26.04;38.47
80412;SHT30;69749;42.684;23.360;2023-09-08T10:04:20;26.01;38.17
80412;SHT30;69749;42.684;23.360;2023-09-08T10:06:46;25.85;38.91
80412;SHT30;69749;42.684;23.360;2023-09-08T10:09:12;25.95;38.73
80412;SHT30;69749;42.684;23.360;2023-09-08T10:11:48;26.15;38.62
80412;SHT30;69749;42.684;23.360;2023-09-08T10:14:15;26.14;38.38
80412;SHT30;69749;42.684;23.360;2023-09-08T10:16:43;25.98;38.78
80412;SHT30;69749;42.684;23.360;2023-09-08T10:19:10;25.80;39.34
80412;SHT30;69749;42.684;23.360;2023-09-08T10:21:42;26.08;38.82
80412;SHT30;69749;42.684;23.360;2023-09-08T10:24:24;26.21;38.79
80412;SHT30;69749;42.684;23.360;2023-09-08T10:27:02;25.92;39.68
80412;SHT30;69749;42.684;23.360;2023-09-08T10:29:30;25.92;39.31
80412;SHT30;69749;42.684;23.360;2023-09-08T10:31:56;25.88;39.36
80412;SHT30;69749;42.684;23.360;2023-09-08T10:34:23;25.99;39.36
80412;SHT30;69749;42.684;23.360;2023-09-08T10:36:49;25.59;40.00
80412;SHT30;69749;42.684;23.360;2023-09-08T10:39:35;25.63;40.35
80412;SHT30;69749;42.684;23.360;2023-09-08T10:44:44;25.56;39.92
80412;SHT30;69749;42.684;23.360;2023-09-08T10:47:10;25.67;39.55
80412;SHT30;69749;42.684;23.360;2023-09-08T10:49:36;25.69;39.34
80412;SHT30;69749;42.684;23.360;2023-09-08T10:52:08;25.67;39.18
80412;SHT30;69749;42.684;23.360;2023-09-08T10:54:50;25.43;40.20
80412;SHT30;69749;42.684;23.360;2023-09-08T10:57:17;25.43;40.13
80412;SHT30;69749;42.684;23.360;2023-09-08T11:00:05;25.44;40.19
80412;SHT30;69749;42.684;23.360;2023-09-08T11:05:03;25.40;40.29
80412;SHT30;69749;42.684;23.360;2023-09-08T11:07:31;25.47;40.12
80412;SHT30;69749;42.684;23.360;2023-09-08T11:09:57;25.57;40.62
80412;SHT30;69749;42.684;23.360;2023-09-08T11:12:26;25.57;39.76
80412;SHT30;69749;42.684;23.360;2023-09-08T11:14:52;25.66;39.71
80412;SHT30;69749;42.684;23.360;2023-09-08T11:17:17;25.77;39.77
80412;SHT30;69749;42.684;23.360;2023-09-08T11:19:46;25.53;40.10
80412;SHT30;69749;42.684;23.360;2023-09-08T11:22:15;25.59;40.02
80412;SHT30;69749;42.684;23.360;2023-09-08T11:24:42;25.77;40.24
80412;SHT30;69749;42.684;23.360;2023-09-08T11:27:08;25.80;40.47
80412;SHT30;69749;42.684;23.360;2023-09-08T11:29:34;25.51;40.74
80412;SHT30;69749;42.684;23.360;2023-09-08T11:31:59;25.40;40.77
80412;SHT30;69749;42.684;23.360;2023-09-08T11:34:25;25.49;40.44
80412;SHT30;69749;42.684;23.360;2023-09-08T11:36:51;25.37;40.25
80412;SHT30;69749;42.684;23.360;2023-09-08T11:39:18;25.43;40.27
80412;SHT30;69749;42.684;23.360;2023-09-08T11:41:43;25.53;40.46
80412;SHT30;69749;42.684;23.360;2023-09-08T11:44:08;25.67;40.30
80412;SHT30;69749;42.684;23.360;2023-09-08T11:46:34;25.77;40.16
80412;SHT30;69749;42.684;23.360;2023-09-08T11:49:00;25.82;40.24
80412;SHT30;69749;42.684;23.360;2023-09-08T11:51:26;25.81;39.96
80412;SHT30;69749;42.684;23.360;2023-09-08T11:53:52;25.84;39.27
80412;SHT30;69749;42.684;23.360;2023-09-08T11:56:18;25.91;39.63
80412;SHT30;69749;42.684;23.360;2023-09-08T11:58:44;26.06;39.58
80412;SHT30;69749;42.684;23.360;2023-09-08T12:01:10;25.97;39.12
80412;SHT30;69749;42.684;23.360;2023-09-08T12:03:51;26.04;40.06
80412;SHT30;69749;42.684;23.360;2023-09-08T12:06:17;25.95;39.46
80412;SHT30;69749;42.684;23.360;2023-09-08T12:08:42;26.06;38.43
80412;SHT30;69749;42.684;23.360;2023-09-08T12:11:09;26.01;38.70
80412;SHT30;69749;42.684;23.360;2023-09-08T12:13:35;25.88;38.76
80412;SHT30;69749;42.684;23.360;2023-09-08T12:16:00;25.98;39.10
80412;SHT30;69749;42.684;23.360;2023-09-08T12:18:38;25.91;38.72
80412;SHT30;69749;42.684;23.360;2023-09-08T12:21:04;25.94;39.52
80412;SHT30;69749;42.684;23.360;2023-09-08T12:23:30;25.87;39.21
80412;SHT30;69749;42.684;23.360;2023-09-08T12:25:56;25.91;39.18
80412;SHT30;69749;42.684;23.360;2023-09-08T12:28:22;25.84;39.67
80412;SHT30;69749;42.684;23.360;2023-09-08T12:30:50;26.09;39.51
80412;SHT30;69749;42.684;23.360;2023-09-08T12:33:16;26.15;39.30
80412;SHT30;69749;42.684;23.360;2023-09-08T12:35:46;26.18;38.90
80412;SHT30;69749;42.684;23.360;2023-09-08T12:38:13;26.32;38.38
80412;SHT30;69749;42.684;23.360;2023-09-08T12:40:39;26.26;38.72
80412;SHT30;69749;42.684;23.360;2023-09-08T12:43:05;26.25;38.78
80412;SHT30;69749;42.684;23.360;2023-09-08T12:45:31;26.31;38.65
80412;SHT30;69749;42.684;23.360;2023-09-08T12:47:59;26.46;38.04
80412;SHT30;69749;42.684;23.360;2023-09-08T12:50:25;26.60;38.31
80412;SHT30;69749;42.684;23.360;2023-09-08T12:52:51;26.53;37.89
80412;SHT30;69749;42.684;23.360;2023-09-08T12:55:16;26.50;38.60
80412;SHT30;69749;42.684;23.360;2023-09-08T12:57:42;26.57;38.30
80412;SHT30;69749;42.684;23.360;2023-09-08T13:00:08;26.59;37.83
80412;SHT30;69749;42.684;23.360;2023-09-08T13:02:34;26.60;37.66
80412;SHT30;69749;42.684;23.360;2023-09-08T13:05:00;26.45;37.86
80412;SHT30;69749;42.684;23.360;2023-09-08T13:07:26;26.33;38.60
80412;SHT30;69749;42.684;23.360;2023-09-08T13:09:52;26.31;37.54
80412;SHT30;69749;42.684;23.360;2023-09-08T13:12:17;26.26;37.08
80412;SHT30;69749;42.684;23.360;2023-09-08T13:14:43;26.25;36.87
80412;SHT30;69749;42.684;23.360;2023-09-08T13:17:11;26.12;37.34
80412;SHT30;69749;42.684;23.360;2023-09-08T13:19:37;25.69;37.84
80412;SHT30;69749;42.684;23.360;2023-09-08T13:22:05;25.49;38.51
80412;SHT30;69749;42.684;23.360;2023-09-08T13:24:31;25.29;37.80
80412;SHT30;69749;42.684;23.360;2023-09-08T13:26:57;25.47;37.92
80412;SHT30;69749;42.684;23.360;2023-09-08T13:29:22;25.37;38.29
80412;SHT30;69749;42.684;23.360;2023-09-08T13:31:47;25.49;38.49
80412;SHT30;69749;42.684;23.360;2023-09-08T13:34:13;25.54;38.46
80412;SHT30;69749;42.684;23.360;2023-09-08T13:36:38;25.50;38.38
80412;SHT30;69749;42.684;23.360;2023-09-08T13:39:04;25.51;38.24
80412;SHT30;69749;42.684;23.360;2023-09-08T13:44:15;25.30;37.82
80412;SHT30;69749;42.684;23.360;2023-09-08T13:46:40;25.30;38.36
80412;SHT30;69749;42.684;23.360;2023-09-08T13:49:06;25.43;37.81
80412;SHT30;69749;42.684;23.360;2023-09-08T13:51:31;25.56;38.15
80412;SHT30;69749;42.684;23.360;2023-09-08T13:53:57;25.37;37.99
80412;SHT30;69749;42.684;23.360;2023-09-08T13:56:23;25.30;38.37
80412;SHT30;69749;42.684;23.360;2023-09-08T13:58:48;25.37;38.09
80412;SHT30;69749;42.684;23.360;2023-09-08T14:01:13;25.56;38.66
80412;SHT30;69749;42.684;23.360;2023-09-08T14:03:39;25.69;38.60
80412;SHT30;69749;42.684;23.360;2023-09-08T14:06:04;25.71;38.29
80412;SHT30;69749;42.684;23.360;2023-09-08T14:08:30;25.74;38.58
80412;SHT30;69749;42.684;23.360;2023-09-08T14:10:55;25.81;38.14
80412;SHT30;69749;42.684;23.360;2023-09-08T14:13:21;25.87;38.35
80412;SHT30;69749;42.684;23.360;2023-09-08T14:15:46;25.91;38.18
80412;SHT30;69749;42.684;23.360;2023-09-08T14:18:11;25.77;38.32
80412;SHT30;69749;42.684;23.360;2023-09-08T14:20:39;25.84;38.28
80412;SHT30;69749;42.684;23.360;2023-09-08T14:23:05;25.95;38.19
80412;SHT30;69749;42.684;23.360;2023-09-08T14:25:33;25.99;38.28
80412;SHT30;69749;42.684;23.360;2023-09-08T14:27:58;26.02;38.05
80412;SHT30;69749;42.684;23.360;2023-09-08T14:30:23;26.01;37.83
80412;SHT30;69749;42.684;23.360;2023-09-08T14:32:49;25.90;38.10
80412;SHT30;69749;42.684;23.360;2023-09-08T14:35:15;25.90;38.46
80412;SHT30;69749;42.684;23.360;2023-09-08T14:37:40;25.88;38.24
80412;SHT30;69749;42.684;23.360;2023-09-08T14:40:06;25.99;37.93
80412;SHT30;69749;42.684;23.360;2023-09-08T14:42:32;25.98;37.96
80412;SHT30;69749;42.684;23.360;2023-09-08T14:44:57;25.95;38.11
80412;SHT30;69749;42.684;23.360;2023-09-08T14:47:23;25.97;38.19
80412;SHT30;69749;42.684;23.360;2023-09-08T14:49:48;25.91;38.07
80412;SHT30;69749;42.684;23.360;2023-09-08T14:52:14;25.94;37.79
80412;SHT30;69749;42.684;23.360;2023-09-08T14:54:40;25.88;38.14
80412;SHT30;69749;42.684;23.360;2023-09-08T14:57:06;25.82;38.28
80412;SHT30;69749;42.684;23.360;2023-09-08T14:59:31;25.80;38.45
80412;SHT30;69749;42.684;23.360;2023-09-08T15:01:57;25.75;38.39
80412;SHT30;69749;42.684;23.360;2023-09-08T15:04:22;25.64;38.61
80412;SHT30;69749;42.684;23.360;2023-09-08T15:06:48;25.66;38.63
80412;SHT30;69749;42.684;23.360;2023-09-08T15:09:13;25.60;39.26
80412;SHT30;69749;42.684;23.360;2023-09-08T15:11:39;25.57;39.35
80412;SHT30;69749;42.684;23.360;2023-09-08T15:14:04;25.60;38.82
80412;SHT30;69749;42.684;23.360;2023-09-08T15:16:30;25.49;38.73
80412;SHT30;69749;42.684;23.360;2023-09-08T15:18:55;25.54;38.94
80412;SHT30;69749;42.684;23.360;2023-09-08T15:21:20;25.46;38.86
80412;SHT30;69749;42.684;23.360;2023-09-08T15:23:51;25.43;39.22